Aérodrome :
LOGIN :

S'inscrire | Disclaimer

   EN    FR    IT 

 










Légende :    VFR   VFR Marginal   IFR   IFR Intensif   IFR Très Intensif
Visi : 
Plafond : 
>= 8 km
>= 3000ft
5 à 8 km
1000 à 3000 ft
1500m à 5 km
500 à 1000 ft
800 à 1500m
200 à 500 ft
< 800m
< 200 ft
Symboles :   Orages  Brouillard  Fortes neiges  Fortes précipitations  Vent > 20 kt
SIGMETs :   Divers  Orages  Givrage  Turbulence  Onde Orograph.  Cendres Volcan.







- Altitude de l'aérodrome : 7 ft
- Code IATA : XHE
- Voir les cartes d'approche


LFTH - Hyeres

DERNIER METAR :
  • 190100Z AUTO 34003KT CAVOK 17/14 Q1014 NOSIG

METARs EXPIRÉS :
  • 190030Z AUTO 34004KT CAVOK 17/14 Q1014 NOSIG
  • 190000Z AUTO VRB03KT CAVOK 17/14 Q1015 NOSIG
  • 182330Z AUTO 33003KT CAVOK 17/14 Q1014 NOSIG
  • 182300Z AUTO 36003KT CAVOK 17/14 Q1014 NOSIG
  • 182230Z AUTO VRB02KT CAVOK 18/14 Q1014 NOSIG
  • 182200Z AUTO VRB02KT CAVOK 18/14 Q1014 NOSIG

TAF TAF LFTH
Valide du 18 à 21h jusqu'au 19 à 21h UTC


182000Z 1821/1921 VRB05KT CAVOK
TEMPO 1821/1911 36008KT
TEMPO 1911/1916 13008KT
Pas de NOTAMs connus pour ce terrain.



MET'MAP, la Météo Aéronautique d'un coup d'oeil ! - Copyright ORBIFLY Décembre 2007 - Disclaimer

ORBIFLY MET'MAP TEAM :

Programmation & Développement : Alexandra Zaïnal
Conception & Développement : Baudouin d'Aumeries
Co-Programmation & Développement : Marc-Olivier Méhu
Soutien technique & logistique : Manuel Goepfert

Contact : metmap@orbifly.com




SOURCES & CREDITS :

   NOAA